Time;durP1;ratioP1;P1;durP2;ratioP2;P2;SDS_P1;SDS_P2;PMS_P1;PMS_P2;Temp;Humidity;BMP_temperature;BMP_pressure;BME280_temperature;BME280_humidity;BME280_pressure;Samples;Min_cycle;Max_cycle;Signal;HPM_P1;HPM_P2
2022/03/12 00:00:50;;;;;;;22.63;13.23;;;;;;;-2.47;53.65;95988.47;5047456;28;20036;-59
2022/03/12 00:03:16;;;;;;;17.55;12.43;;;;;;;-1.77;53.96;96097.34;5047134;28;20025;-57
2022/03/12 00:05:52;;;;;;;19.58;13.52;;;;;;;-1.92;54.08;96065.28;5047526;28;20025;-60
2022/03/12 00:08:40;;;;;;;23.35;14.98;;;;;;;-1.86;54.11;96090.59;5050095;28;20455;-58
2022/03/12 00:11:07;;;;;;;21.67;13.75;;;;;;;-1.73;53.55;96089.78;5051159;28;20076;-59
2022/03/12 00:13:33;;;;;;;18.52;13.18;;;;;;;-1.49;54.00;96108.38;5051121;28;20076;-61
2022/03/12 00:15:59;;;;;;;21.90;15.27;;;;;;;-1.47;56.51;96114.28;5050526;28;20381;-60
2022/03/12 00:18:29;;;;;;;22.42;14.43;;;;;;;-1.61;58.31;96106.66;5051179;28;20139;-60
2022/03/12 00:20:56;;;;;;;24.17;16.27;;;;;;;-1.79;59.16;96121.78;5051000;28;20051;-60
2022/03/12 00:23:23;;;;;;;24.23;17.38;;;;;;;-1.73;62.37;96125.19;5050807;28;20021;-63
2022/03/12 00:25:50;;;;;;;24.42;16.75;;;;;;;-1.86;64.04;96120.94;5050944;28;20518;-59
2022/03/12 00:28:16;;;;;;;27.10;17.02;;;;;;;-2.11;64.26;96114.94;5048161;28;20108;-59
2022/03/12 00:30:49;;;;;;;24.58;16.98;;;;;;;-2.03;64.64;96088.84;5032381;28;20021;-58
2022/03/12 00:33:17;;;;;;;27.98;16.70;;;;;;;-2.49;64.79;96024.66;5050990;28;20086;-58
2022/03/12 00:35:46;;;;;;;29.75;18.25;;;;;;;-1.88;65.21;96115.03;5050772;28;20439;-57
2022/03/12 00:38:11;;;;;;;26.27;18.35;;;;;;;-2.02;66.85;96114.97;5050612;28;20510;-59
2022/03/12 00:40:37;;;;;;;34.20;19.70;;;;;;;-2.25;67.62;96110.69;5050292;28;20105;-62
2022/03/12 00:43:03;;;;;;;26.77;17.95;;;;;;;-2.20;68.37;96123.31;5050519;28;20662;-64
2022/03/12 00:45:29;;;;;;;30.15;17.13;;;;;;;-2.30;68.71;96107.28;5050241;28;20035;-58
2022/03/12 00:47:55;;;;;;;27.25;16.55;;;;;;;-1.95;68.59;96120.88;5050658;28;20538;-57
2022/03/12 00:50:21;;;;;;;26.92;17.00;;;;;;;-1.82;68.86;96120.13;5050297;28;20031;-65
2022/03/12 00:52:46;;;;;;;25.90;16.45;;;;;;;-2.01;67.83;96077.91;5049951;28;20032;-64
2022/03/12 00:55:12;;;;;;;22.67;15.90;;;;;;;-1.74;68.91;96115.94;5050299;28;20033;-64
2022/03/12 00:57:37;;;;;;;24.65;15.48;;;;;;;-1.68;68.03;96105.78;5050397;28;20028;-59
2022/03/12 01:00:04;;;;;;;25.30;17.10;;;;;;;-1.77;69.02;96118.44;5049992;28;20021;-59
2022/03/12 01:02:29;;;;;;;19.27;14.13;;;;;;;-2.12;69.73;96098.94;5049709;28;20029;-61
2022/03/12 01:04:55;;;;;;;19.17;12.80;;;;;;;-2.32;70.34;96126.63;5049590;28;20032;-59
2022/03/12 01:07:20;;;;;;;18.42;12.10;;;;;;;-2.40;71.41;96124.06;5049628;28;20087;-61
2022/03/12 01:09:47;;;;;;;15.95;11.63;;;;;;;-2.30;71.83;96111.50;5049891;28;20071;-60
2022/03/12 01:12:12;;;;;;;19.95;10.63;;;;;;;-2.13;71.17;96130.13;5050028;28;20033;-61
2022/03/12 01:14:38;;;;;;;15.13;10.10;;;;;;;-2.17;71.11;96125.88;5049272;28;20060;-58
2022/03/12 01:17:06;;;;;;;13.80;9.02;;;;;;;-2.30;71.79;96130.00;5048340;28;20044;-62
2022/03/12 01:19:34;;;;;;;13.23;7.97;;;;;;;-2.53;70.92;96099.59;5048524;28;20075;-64
2022/03/12 01:22:01;;;;;;;12.25;7.63;;;;;;;-2.53;69.94;96112.22;5049643;28;20033;-61
2022/03/12 01:24:28;;;;;;;12.35;8.02;;;;;;;-2.79;70.08;96097.78;5049429;28;20047;-61
2022/03/12 01:26:54;;;;;;;12.25;8.75;;;;;;;-2.63;69.73;96128.16;5049439;28;20481;-60
2022/03/12 01:29:19;;;;;;;10.73;7.43;;;;;;;-2.68;69.18;96097.81;5049733;28;20086;-59
2022/03/12 01:31:45;;;;;;;12.70;7.53;;;;;;;-2.31;71.62;96127.47;5049762;28;20048;-60
2022/03/12 01:34:10;;;;;;;11.75;7.78;;;;;;;-2.20;70.45;96114.91;5049255;28;20408;-61
2022/03/12 01:36:36;;;;;;;11.95;7.95;;;;;;;-2.08;68.29;96125.91;5049853;28;20025;-60
2022/03/12 01:39:02;;;;;;;12.80;7.93;;;;;;;-2.11;67.79;96123.38;5049488;28;20234;-60
2022/03/12 01:41:30;;;;;;;15.80;9.13;;;;;;;-2.43;68.57;96083.66;5049801;28;20036;-61
2022/03/12 01:43:57;;;;;;;13.82;8.40;;;;;;;-2.37;69.07;96089.56;5049604;28;20151;-63
2022/03/12 01:46:35;;;;;;;13.40;9.02;;;;;;;-2.13;70.17;96122.53;5048878;28;20086;-58
2022/03/12 01:49:30;;;;;;;12.30;8.13;;;;;;;-1.86;68.66;96118.41;5049194;28;20043;-59
2022/03/12 01:51:56;;;;;;;12.63;7.97;;;;;;;-2.05;68.61;96115.81;5045880;28;20044;-59
2022/03/12 01:54:25;;;;;;;14.27;8.60;;;;;;;-2.16;69.08;96112.41;5046438;28;20029;-59
2022/03/12 01:56:53;;;;;;;12.90;7.78;;;;;;;-2.51;69.47;96102.13;5046458;28;20111;-59
2022/03/12 01:59:20;;;;;;;14.15;8.23;;;;;;;-2.55;69.83;96110.53;5046261;28;20512;-59
2022/03/12 02:01:51;;;;;;;11.52;6.40;;;;;;;-3.09;70.64;96059.69;5046302;28;20045;-63
2022/03/12 02:04:17;;;;;;;10.15;6.82;;;;;;;-2.89;71.28;96110.31;5045563;28;20456;-59
2022/03/12 02:06:43;;;;;;;9.75;6.43;;;;;;;-2.88;71.09;96112.00;5046208;28;20110;-59
2022/03/12 02:09:14;;;;;;;11.43;7.35;;;;;;;-3.28;71.40;96052.00;5046128;28;20054;-61
2022/03/12 02:11:40;;;;;;;13.70;8.45;;;;;;;-2.99;72.73;96112.75;5045930;28;20471;-61
2022/03/12 02:14:13;;;;;;;13.57;9.20;;;;;;;-3.02;72.94;96106.84;5045868;28;20057;-59
2022/03/12 02:16:48;;;;;;;16.80;9.40;;;;;;;-3.08;72.29;96091.66;5045431;28;20538;-58
2022/03/12 02:19:13;;;;;;;15.63;9.50;;;;;;;-3.15;72.69;96079.03;5045782;28;20036;-58
2022/03/12 02:21:49;;;;;;;15.55;8.13;;;;;;;-2.88;71.97;96112.84;5045779;28;20045;-64
2022/03/12 02:24:16;;;;;;;14.25;9.32;;;;;;;-2.92;72.78;96117.84;5045427;28;20045;-63
2022/03/12 02:26:44;;;;;;;14.43;8.52;;;;;;;-2.74;71.88;96130.59;5045418;28;20053;-59
2022/03/12 02:29:12;;;;;;;13.35;8.23;;;;;;;-2.75;70.58;96135.63;5048121;28;20037;-61
2022/03/12 02:31:40;;;;;;;12.43;7.93;;;;;;;-2.80;68.24;96128.88;5048199;28;20094;-57
2022/03/12 02:34:06;;;;;;;11.95;7.55;;;;;;;-2.87;69.46;96123.78;5048360;28;20091;-60
2022/03/12 02:36:32;;;;;;;12.32;8.65;;;;;;;-2.77;68.86;96128.91;5048395;28;20056;-59
2022/03/12 02:39:04;;;;;;;12.43;7.95;;;;;;;-2.71;69.22;96127.25;5047930;28;20145;-67
2022/03/12 02:41:29;;;;;;;;;;;;;;;-2.71;68.99;96125.56;5048792;28;20028;-63
2022/03/12 02:43:55;;;;;;;11.50;7.38;;;;;;;-2.82;68.94;96130.56;5046701;28;19923;-61
2022/03/12 02:46:21;;;;;;;7.85;6.05;;;;;;;-2.89;68.20;96135.56;5047917;28;20029;-60
2022/03/12 02:48:51;;;;;;;12.48;8.95;;;;;;;-3.18;69.01;96103.34;5048335;28;20017;-59
2022/03/12 02:51:20;;;;;;;13.37;7.80;;;;;;;-3.01;69.45;96138.84;5047771;28;20025;-62
2022/03/12 02:53:46;;;;;;;11.70;7.88;;;;;;;-3.43;69.42;96088.03;5047865;28;20734;-60
2022/03/12 02:56:12;;;;;;;13.30;9.00;;;;;;;-3.04;70.02;96144.69;5047977;28;20029;-62
2022/03/12 02:58:37;;;;;;;13.90;9.07;;;;;;;-3.07;71.00;96128.69;5047739;28;20017;-59
2022/03/12 03:01:04;;;;;;;13.43;8.57;;;;;;;-2.96;70.44;96122.88;5048051;28;20017;-58
2022/03/12 03:03:37;;;;;;;14.85;9.27;;;;;;;-2.78;70.23;96152.47;5047421;28;20108;-60
2022/03/12 03:06:02;;;;;;;13.02;9.45;;;;;;;-3.01;70.64;96126.22;5047795;28;20032;-59
2022/03/12 03:08:28;;;;;;;16.05;10.27;;;;;;;-2.71;70.52;96148.28;5047660;28;20104;-60
2022/03/12 03:10:56;;;;;;;14.95;9.80;;;;;;;-2.56;69.87;96152.59;5048054;28;20029;-61
2022/03/12 03:13:27;;;;;;;15.52;10.25;;;;;;;-2.58;68.43;96147.53;5047619;28;20069;-59
2022/03/12 03:15:56;;;;;;;16.15;9.65;;;;;;;-2.56;66.28;96156.81;5047637;28;20033;-59
2022/03/12 03:18:24;;;;;;;13.45;8.90;;;;;;;-2.51;65.31;96150.97;5047802;28;20102;-58
2022/03/12 03:20:51;;;;;;;13.20;10.15;;;;;;;-2.46;66.41;96159.41;5047768;28;20083;-58
2022/03/12 03:23:17;;;;;;;14.18;9.25;;;;;;;-2.57;67.44;96148.41;5047707;28;20018;-58
2022/03/12 03:25:43;;;;;;;14.48;10.88;;;;;;;-2.75;66.45;96121.34;5047374;28;20124;-59
2022/03/12 03:28:08;;;;;;;14.88;9.75;;;;;;;-2.53;66.06;96150.09;5047191;28;20107;-58
2022/03/12 03:30:37;;;;;;;14.07;9.00;;;;;;;-2.48;65.34;96129.91;5047688;28;20155;-58
2022/03/12 03:33:06;;;;;;;12.32;8.75;;;;;;;-2.33;66.00;96159.47;5047490;28;20518;-59
2022/03/12 03:35:31;;;;;;;18.08;10.25;;;;;;;-2.24;64.80;96164.59;5047705;28;20033;-60
2022/03/12 03:37:58;;;;;;;13.50;8.82;;;;;;;-2.35;64.91;96134.19;5047497;28;20029;-60
2022/03/12 03:40:26;;;;;;;15.18;9.23;;;;;;;-2.34;65.17;96130.00;5047366;28;20025;-62
2022/03/12 03:42:53;;;;;;;12.45;8.55;;;;;;;-2.08;65.02;96161.31;5049745;28;20575;-60
2022/03/12 03:45:24;;;;;;;13.90;10.05;;;;;;;-2.14;63.96;96150.31;5051374;28;20060;-60
2022/03/12 03:47:51;;;;;;;13.57;9.23;;;;;;;-2.18;63.71;96157.03;5051813;28;20439;-59
2022/03/12 03:50:25;;;;;;;12.05;8.73;;;;;;;-2.23;64.38;96157.03;5051482;28;20037;-60
2022/03/12 03:53:03;;;;;;;13.02;8.95;;;;;;;-2.26;64.05;96174.69;5051025;28;20025;-57
2022/03/12 03:55:32;;;;;;;15.85;10.10;;;;;;;-2.34;63.78;96173.81;5051238;28;20044;-61
2022/03/12 03:57:59;;;;;;;14.60;9.57;;;;;;;-2.38;63.94;96174.59;5051458;28;20033;-62
2022/03/12 04:00:26;;;;;;;16.58;9.68;;;;;;;-2.60;65.27;96171.94;5051169;28;20040;-58
2022/03/12 04:03:02;;;;;;;15.48;10.75;;;;;;;-2.70;65.87;96162.63;5050935;28;20378;-60
2022/03/12 04:05:34;;;;;;;14.95;9.75;;;;;;;-2.55;65.96;96173.66;5051029;28;20029;-59
2022/03/12 04:08:00;;;;;;;15.80;9.32;;;;;;;-2.64;66.42;96150.03;5051194;28;20032;-58
2022/03/12 04:10:27;;;;;;;14.38;10.13;;;;;;;-2.50;65.93;96182.13;5051368;28;20138;-57
2022/03/12 04:12:53;;;;;;;17.17;10.73;;;;;;;-2.61;66.36;96177.84;5051114;28;20112;-58
2022/03/12 04:15:18;;;;;;;16.65;10.38;;;;;;;-3.47;66.63;96040.09;5050865;28;20112;-58
2022/03/12 04:17:45;;;;;;;16.30;11.82;;;;;;;-2.84;67.54;96149.88;5051231;28;20021;-58
2022/03/12 04:20:14;;;;;;;16.88;10.75;;;;;;;-2.91;66.48;96155.72;5051111;28;20573;-58
2022/03/12 04:22:40;;;;;;;15.88;10.93;;;;;;;-3.23;67.23;96110.03;5050725;28;20021;-58
2022/03/12 04:25:11;;;;;;;15.65;10.88;;;;;;;-2.69;66.93;96186.19;5050785;28;20408;-58
2022/03/12 04:27:38;;;;;;;17.70;10.95;;;;;;;-3.62;66.74;96044.16;5050269;28;20037;-57
2022/03/12 04:30:05;;;;;;;18.55;11.98;;;;;;;-3.19;67.31;96121.88;5051126;28;20033;-56
2022/03/12 04:32:31;;;;;;;18.75;12.75;;;;;;;-2.80;67.46;96188.66;5050702;28;20032;-58
2022/03/12 04:34:56;;;;;;;16.25;11.80;;;;;;;-2.89;67.64;96194.44;5050800;28;20029;-58
2022/03/12 04:37:22;;;;;;;16.42;11.55;;;;;;;-3.00;67.60;96191.84;5050480;28;20163;-60
2022/03/12 04:39:49;;;;;;;17.15;10.45;;;;;;;-3.06;68.53;96201.88;5050173;28;20400;-57
2022/03/12 04:42:23;;;;;;;17.35;10.80;;;;;;;-3.27;68.35;96176.47;5050504;28;20029;-59
2022/03/12 04:44:50;;;;;;;16.90;11.73;;;;;;;-3.00;68.31;96212.03;5050433;28;20021;-58
2022/03/12 04:47:19;;;;;;;16.38;10.55;;;;;;;-3.29;68.21;96178.97;5050323;28;20041;-56
2022/03/12 04:49:44;;;;;;;15.57;10.88;;;;;;;-3.14;68.89;96211.06;5050487;28;20024;-60
2022/03/12 04:52:11;;;;;;;15.35;10.48;;;;;;;-3.47;69.10;96169.53;5049979;28;20025;-61
2022/03/12 04:54:37;;;;;;;14.73;10.60;;;;;;;-3.21;69.25;96216.88;5049893;28;20056;-58
2022/03/12 04:57:05;;;;;;;18.45;11.52;;;;;;;-3.54;69.69;96188.81;5050311;28;20060;-60
2022/03/12 04:59:31;;;;;;;18.83;11.38;;;;;;;-3.44;69.94;96224.19;5050217;28;20120;-58
2022/03/12 05:01:57;;;;;;;17.85;11.68;;;;;;;-3.57;70.76;96226.59;5050094;28;20096;-58
2022/03/12 05:04:23;;;;;;;16.90;11.25;;;;;;;-3.52;70.59;96227.47;5049662;28;20021;-55
2022/03/12 05:06:48;;;;;;;16.08;10.38;;;;;;;-3.44;70.70;96235.16;5050106;28;20465;-54
2022/03/12 05:09:16;;;;;;;15.70;10.32;;;;;;;-3.37;69.30;96218.41;5049904;28;20028;-58
2022/03/12 05:11:42;;;;;;;15.73;10.30;;;;;;;-3.44;69.60;96230.09;5049925;28;20029;-58
2022/03/12 05:14:10;;;;;;;14.18;10.25;;;;;;;-3.56;70.18;96232.47;5049952;28;20052;-60
2022/03/12 05:16:44;;;;;;;13.75;9.80;;;;;;;-3.59;70.49;96222.34;5049544;28;20033;-68
2022/03/12 05:19:10;;;;;;;16.23;10.80;;;;;;;-3.44;69.70;96244.38;5041373;28;20040;-58
2022/03/12 05:21:36;;;;;;;16.20;10.00;;;;;;;-3.47;69.81;96245.19;5049312;28;20064;-59
2022/03/12 05:24:02;;;;;;;15.43;10.50;;;;;;;-3.62;70.00;96243.34;5049754;28;20032;-60
2022/03/12 05:26:27;;;;;;;15.52;11.05;;;;;;;-3.61;70.71;96251.75;5050009;28;20056;-60
2022/03/12 05:28:53;;;;;;;17.98;10.60;;;;;;;-3.65;71.08;96247.50;5049352;28;20777;-58
2022/03/12 05:31:18;;;;;;;14.25;11.45;;;;;;;-3.64;70.64;96250.06;5049637;28;20038;-60
2022/03/12 05:33:44;;;;;;;18.40;10.35;;;;;;;-3.67;70.66;96244.09;5049576;28;20028;-57
2022/03/12 05:36:10;;;;;;;14.43;9.32;;;;;;;-3.66;69.98;96236.56;5049653;28;20029;-59
2022/03/12 05:38:36;;;;;;;15.88;10.93;;;;;;;-3.53;69.92;96265.28;5049290;28;20117;-60
2022/03/12 05:41:11;;;;;;;16.45;10.57;;;;;;;-3.84;69.56;96201.91;5049636;28;20025;-56
2022/03/12 05:43:45;;;;;;;17.75;10.88;;;;;;;-4.15;69.67;96120.94;5049188;28;20585;-59
2022/03/12 05:46:15;;;;;;;15.63;10.75;;;;;;;-3.62;68.43;96180.31;5049514;28;20064;-57
2022/03/12 05:48:42;;;;;;;17.10;11.38;;;;;;;-2.79;67.51;96278.69;5049440;28;20036;-57
2022/03/12 05:51:09;;;;;;;17.13;12.43;;;;;;;-2.81;67.38;96278.66;5048512;28;20021;-58
2022/03/12 05:53:36;;;;;;;19.17;11.65;;;;;;;-2.54;66.92;96276.38;5049221;28;20025;-59
2022/03/12 05:56:03;;;;;;;16.30;10.77;;;;;;;-2.37;66.46;96284.94;5049691;28;20033;-59
2022/03/12 05:58:35;;;;;;;16.63;12.85;;;;;;;-2.40;65.68;96283.22;5049105;28;20029;-58
2022/03/12 06:01:01;;;;;;;20.98;14.55;;;;;;;-2.38;66.56;96274.81;5049045;28;20036;-59
2022/03/12 06:03:27;;;;;;;23.02;15.35;;;;;;;-2.01;65.50;96268.34;5048595;28;20433;-59
2022/03/12 06:05:59;;;;;;;30.55;18.00;;;;;;;-2.28;65.26;96234.47;5048267;28;20698;-59
2022/03/12 06:08:27;;;;;;;25.45;17.77;;;;;;;-2.00;64.78;96281.81;5048974;28;20404;-58
2022/03/12 06:10:55;;;;;;;32.03;20.48;;;;;;;-1.99;64.53;96288.56;5048881;28;20029;-63
2022/03/12 06:13:28;;;;;;;20.92;15.65;;;;;;;-1.80;63.72;96302.16;5048595;28;20069;-58
2022/03/12 06:16:00;;;;;;;21.10;15.40;;;;;;;-2.04;63.42;96275.91;5047167;28;20485;-60
2022/03/12 06:18:27;;;;;;;21.73;15.38;;;;;;;-2.09;63.49;96283.44;5048611;28;20572;-61
2022/03/12 06:20:53;;;;;;;15.60;11.02;;;;;;;-2.11;61.21;96307.88;5048860;28;20749;-60
2022/03/12 06:23:18;;;;;;;15.07;10.13;;;;;;;-1.96;59.31;96286.06;5048667;28;20086;-55
2022/03/12 06:25:45;;;;;;;18.13;11.63;;;;;;;-2.00;59.09;96285.22;5048594;28;20033;-61
2022/03/12 06:28:10;;;;;;;18.65;13.75;;;;;;;-2.06;61.85;96312.97;5048264;28;20404;-59
2022/03/12 06:30:36;;;;;;;22.20;12.60;;;;;;;-1.81;59.27;96306.38;5048480;28;20071;-62
2022/03/12 06:33:05;;;;;;;17.05;11.82;;;;;;;-1.74;59.06;96317.38;5048634;28;20025;-61
2022/03/12 06:35:31;;;;;;;18.10;11.27;;;;;;;-1.54;57.79;96314.94;5048855;28;20033;-62
2022/03/12 06:37:56;;;;;;;15.77;9.68;;;;;;;-1.35;56.56;96306.59;5037507;28;20757;-59
2022/03/12 06:40:26;;;;;;;14.15;9.65;;;;;;;-1.40;53.57;96282.97;5038648;28;20019;-59
2022/03/12 06:42:56;;;;;;;15.23;10.02;;;;;;;-1.49;53.36;96321.75;5038080;28;20052;-59
2022/03/12 06:45:23;;;;;;;13.18;9.48;;;;;;;-1.44;53.13;96323.44;5045188;28;20048;-60
2022/03/12 06:47:49;;;;;;;14.93;10.52;;;;;;;-1.46;53.54;96325.94;5048173;28;20036;-59
2022/03/12 06:50:23;;;;;;;18.58;10.38;;;;;;;-1.38;54.22;96331.88;5048335;28;20069;-57
2022/03/12 06:52:50;;;;;;;13.57;9.15;;;;;;;-1.50;53.35;96329.31;5047939;28;20035;-60
2022/03/12 06:55:23;;;;;;;15.10;9.55;;;;;;;-1.36;51.58;96331.91;5046706;28;20127;-62
2022/03/12 06:57:51;;;;;;;9.02;6.50;;;;;;;-1.04;49.28;96305.88;5047995;28;20037;-62
2022/03/12 07:00:21;;;;;;;12.82;8.02;;;;;;;-0.86;47.82;96283.13;5047888;28;20068;-60
2022/03/12 07:02:47;;;;;;;12.93;7.35;;;;;;;-0.53;47.38;96334.69;5047926;28;20067;-61
2022/03/12 07:05:12;;;;;;;11.85;8.88;;;;;;;-0.88;49.36;96342.22;5030230;28;20085;-61
2022/03/12 07:07:38;;;;;;;13.15;8.93;;;;;;;-1.18;48.33;96329.47;5027989;28;20025;-62
2022/03/12 07:10:06;;;;;;;13.95;8.98;;;;;;;-0.76;49.04;96335.50;5027953;28;20083;-62
2022/03/12 07:12:32;;;;;;;14.40;9.55;;;;;;;-0.67;47.79;96299.22;5026729;28;20034;-64
2022/03/12 07:14:57;;;;;;;16.98;9.70;;;;;;;-0.43;47.58;96343.16;5027417;28;20049;-63
2022/03/12 07:17:23;;;;;;;13.57;9.82;;;;;;;-0.48;48.24;96339.78;5031531;28;20104;-60
2022/03/12 07:19:48;;;;;;;14.95;9.57;;;;;;;-0.44;46.59;96346.56;5032077;28;20509;-63
2022/03/12 07:22:14;;;;;;;14.10;8.82;;;;;;;-0.32;45.41;96350.78;5032219;28;20104;-62
2022/03/12 07:24:40;;;;;;;15.40;9.40;;;;;;;-0.62;46.02;96282.31;5041034;28;20124;-59
2022/03/12 07:27:05;;;;;;;16.10;10.20;;;;;;;-0.19;45.89;96340.63;5042734;28;20048;-59
2022/03/12 07:29:32;;;;;;;13.82;9.48;;;;;;;-0.12;45.10;96366.00;5033547;28;20138;-58
2022/03/12 07:31:57;;;;;;;17.05;11.48;;;;;;;-0.25;44.27;96347.41;5035851;28;20090;-58
2022/03/12 07:34:24;;;;;;;14.48;10.57;;;;;;;-0.07;44.81;96367.69;5033077;28;20072;-57
2022/03/12 07:36:49;;;;;;;15.90;10.65;;;;;;;-0.15;45.56;96374.44;5031649;28;20112;-59
2022/03/12 07:39:15;;;;;;;13.63;9.52;;;;;;;-0.68;44.99;96330.44;5035939;28;20120;-58
2022/03/12 07:41:41;;;;;;;12.98;9.88;;;;;;;-0.25;45.47;96371.06;5031437;28;20029;-61
2022/03/12 07:44:07;;;;;;;15.50;8.90;;;;;;;-0.16;43.99;96361.75;5037705;28;20022;-62
2022/03/12 07:46:33;;;;;;;14.02;9.00;;;;;;;-0.02;43.57;96381.25;5030297;28;20104;-58
2022/03/12 07:49:00;;;;;;;9.27;6.93;;;;;;;0.07;41.18;96362.63;5035386;28;20021;-64
2022/03/12 07:51:26;;;;;;;12.02;8.10;;;;;;;0.24;41.93;96369.38;5047687;28;20033;-59
2022/03/12 07:53:52;;;;;;;13.77;9.30;;;;;;;0.35;42.25;96355.81;5040010;28;20033;-62
2022/03/12 07:56:18;;;;;;;15.85;8.68;;;;;;;0.88;41.18;96360.78;5028960;28;20091;-58
2022/03/12 07:58:44;;;;;;;14.52;8.93;;;;;;;1.27;40.96;96362.28;5029416;28;20080;-60
2022/03/12 08:01:10;;;;;;;13.20;7.57;;;;;;;1.45;39.19;96370.69;5028632;28;20057;-58
2022/03/12 08:03:36;;;;;;;11.32;8.10;;;;;;;1.48;38.46;96363.03;5033780;28;20029;-58
2022/03/12 08:06:06;;;;;;;9.68;6.00;;;;;;;1.63;37.58;96368.03;5031815;28;20087;-59
2022/03/12 08:08:31;;;;;;;10.57;7.40;;;;;;;1.88;37.54;96365.31;5033204;28;20040;-63
2022/03/12 08:13:43;;;;;;;12.10;8.77;;;;;;;1.99;36.53;96362.69;5027860;28;20107;-65
2022/03/12 08:16:09;;;;;;;10.85;7.53;;;;;;;2.22;36.85;96354.88;5025982;28;20025;-58
2022/03/12 08:18:35;;;;;;;11.75;7.53;;;;;;;2.43;36.49;96361.47;5029053;28;20100;-60
2022/03/12 08:21:00;;;;;;;12.07;7.90;;;;;;;2.55;36.84;96357.97;5034221;28;20033;-64
2022/03/12 08:23:26;;;;;;;13.65;8.15;;;;;;;2.60;36.16;96356.22;5033970;28;20095;-62
2022/03/12 08:25:51;;;;;;;11.20;8.48;;;;;;;2.59;37.57;96362.16;5034576;28;20037;-60
2022/03/12 08:28:18;;;;;;;10.75;7.30;;;;;;;2.25;35.88;96328.53;5028795;28;20112;-58
2022/03/12 08:30:46;;;;;;;14.60;7.35;;;;;;;2.49;35.87;96374.16;5029488;28;20087;-63
2022/03/12 08:33:12;;;;;;;11.65;7.30;;;;;;;2.18;36.01;96363.38;5033332;28;20087;-60
2022/03/12 08:35:38;;;;;;;11.98;7.32;;;;;;;1.95;36.06;96374.59;5030691;28;20048;-63
2022/03/12 08:38:04;;;;;;;9.63;6.68;;;;;;;1.50;36.03;96363.03;5030544;28;20049;-59
2022/03/12 08:40:30;;;;;;;10.15;7.22;;;;;;;1.17;37.08;96358.13;5030604;28;20535;-61
2022/03/12 08:42:56;;;;;;;11.13;8.10;;;;;;;1.16;35.88;96391.16;5030488;28;20029;-62
2022/03/12 08:45:22;;;;;;;10.50;7.15;;;;;;;1.07;36.37;96385.25;5030380;28;20087;-62
2022/03/12 08:47:49;;;;;;;10.68;6.00;;;;;;;1.22;35.08;96389.44;5030615;28;20534;-58
2022/03/12 08:50:15;;;;;;;10.57;6.63;;;;;;;1.01;36.34;96376.81;5030650;28;20051;-60
2022/03/12 08:52:42;;;;;;;11.25;7.78;;;;;;;0.57;36.89;96387.94;5029966;28;20541;-58
2022/03/12 08:55:09;;;;;;;9.38;6.40;;;;;;;0.83;36.97;96388.72;5030115;28;20037;-61
2022/03/12 08:57:36;;;;;;;10.60;7.25;;;;;;;1.26;36.47;96383.50;5030993;28;20425;-59
2022/03/12 09:00:05;;;;;;;11.55;7.35;;;;;;;1.40;35.10;96360.53;5030722;28;20036;-59
2022/03/12 09:02:32;;;;;;;9.70;6.30;;;;;;;1.18;34.62;96319.16;5030308;28;20048;-64
2022/03/12 09:04:58;;;;;;;9.45;6.18;;;;;;;1.44;34.30;96376.59;5029561;28;20511;-62
2022/03/12 09:07:24;;;;;;;12.65;6.60;;;;;;;1.66;33.88;96392.59;5030344;28;20061;-59
2022/03/12 09:09:50;;;;;;;9.68;5.93;;;;;;;2.14;33.75;96382.09;5030011;28;20052;-62
2022/03/12 09:12:16;;;;;;;11.73;6.65;;;;;;;3.02;32.94;96387.19;5028734;28;20556;-62
2022/03/12 09:14:42;;;;;;;10.18;6.95;;;;;;;5.88;27.82;96376.34;5029475;28;20075;-59
2022/03/12 09:17:08;;;;;;;10.50;7.28;;;;;;;10.04;24.53;96351.59;5029638;28;20037;-61
2022/03/12 09:19:33;;;;;;;9.50;5.97;;;;;;;12.41;19.77;96343.78;5030522;28;20556;-61
2022/03/12 09:21:59;;;;;;;9.20;6.72;;;;;;;14.44;18.38;96320.97;5030469;28;20022;-59
2022/03/12 09:24:26;;;;;;;10.13;6.63;;;;;;;15.68;17.85;96340.47;5029835;28;20037;-63
2022/03/12 09:26:51;;;;;;;9.07;7.28;;;;;;;17.01;16.44;96331.00;5029200;28;20459;-60
2022/03/12 09:29:17;;;;;;;9.50;7.05;;;;;;;18.10;15.19;96330.41;5029169;28;20100;-61
2022/03/12 09:31:43;;;;;;;8.52;6.45;;;;;;;17.23;14.25;96337.34;5028856;28;20411;-60
2022/03/12 09:34:09;;;;;;;9.02;6.40;;;;;;;16.46;14.84;96343.31;5029080;28;20025;-60
2022/03/12 09:36:36;;;;;;;8.00;6.35;;;;;;;18.64;13.76;96312.56;5029052;28;20044;-59
2022/03/12 09:39:03;;;;;;;8.93;6.65;;;;;;;19.61;12.50;96326.94;5028060;28;20029;-61
2022/03/12 09:41:28;;;;;;;9.40;7.80;;;;;;;18.55;14.01;96324.53;5028657;28;20029;-60
2022/03/12 09:43:54;;;;;;;8.30;7.10;;;;;;;19.77;12.82;96316.13;5028725;28;20041;-59
2022/03/12 09:46:19;;;;;;;9.35;7.18;;;;;;;16.51;15.53;96328.22;5029034;28;20025;-61
2022/03/12 09:48:45;;;;;;;9.32;7.18;;;;;;;18.42;13.64;96280.22;5027678;28;20483;-59
2022/03/12 09:51:10;;;;;;;8.52;7.20;;;;;;;21.44;11.57;96300.63;5028870;28;20745;-60
2022/03/12 09:53:37;;;;;;;7.30;6.60;;;;;;;22.91;10.45;96308.72;5028743;28;20025;-59
2022/03/12 09:56:03;;;;;;;9.10;7.38;;;;;;;24.03;10.34;96310.50;5028729;28;20032;-60
2022/03/12 09:58:28;;;;;;;9.23;8.02;;;;;;;24.17;10.37;96245.91;5028868;28;20025;-59
2022/03/12 10:00:54;;;;;;;9.20;7.40;;;;;;;23.30;10.69;96308.59;5028225;28;20130;-63
2022/03/12 10:03:19;;;;;;;10.32;7.97;;;;;;;23.93;11.22;96268.41;5027582;28;20445;-61
2022/03/12 10:05:45;;;;;;;10.57;8.27;;;;;;;21.01;12.37;96322.66;5028487;28;20448;-60
2022/03/12 10:08:10;;;;;;;10.55;8.27;;;;;;;19.78;12.85;96315.19;5028168;28;20030;-64
2022/03/12 10:10:36;;;;;;;7.53;6.68;;;;;;;20.70;12.50;96277.22;5028753;28;20025;-64
2022/03/12 10:13:03;;;;;;;10.68;8.00;;;;;;;17.94;13.61;96317.63;5028595;28;20022;-60
2022/03/12 10:15:29;;;;;;;9.10;7.30;;;;;;;15.19;15.45;96298.38;5027920;28;20060;-64
2022/03/12 10:17:55;;;;;;;8.70;7.32;;;;;;;13.31;16.79;96345.25;5028240;28;20076;-62
2022/03/12 10:20:20;;;;;;;10.55;7.18;;;;;;;11.34;18.75;96331.53;5028213;28;20036;-60
2022/03/12 10:22:46;;;;;;;9.90;7.90;;;;;;;15.92;15.71;96323.34;5028117;28;20131;-59
2022/03/12 10:25:13;;;;;;;10.38;8.43;;;;;;;18.73;13.39;96283.97;5027992;28;20463;-63
2022/03/12 10:27:39;;;;;;;9.65;8.00;;;;;;;19.54;12.20;96275.22;5027643;28;20021;-60
2022/03/12 10:30:06;;;;;;;9.20;7.80;;;;;;;18.88;12.33;96307.31;5028142;28;20029;-61
2022/03/12 10:32:34;;;;;;;15.90;8.73;;;;;;;15.10;15.24;96324.91;5027762;28;20032;-60
2022/03/12 10:35:03;;;;;;;13.82;7.05;;;;;;;11.52;18.47;96316.97;5027752;28;20042;-60
2022/03/12 10:37:32;;;;;;;10.45;6.20;;;;;;;9.56;19.95;96343.16;5027833;28;20087;-58
2022/03/12 10:40:03;;;;;;;9.75;6.35;;;;;;;8.22;21.11;96358.06;5027313;28;20029;-58
2022/03/12 10:42:31;;;;;;;10.57;7.63;;;;;;;7.03;22.65;96341.06;5028158;28;20029;-61
2022/03/12 10:45:14;;;;;;;11.43;6.95;;;;;;;5.76;24.28;96363.00;5027959;28;20069;-61
2022/03/12 10:48:02;;;;;;;11.40;8.00;;;;;;;5.74;24.89;96360.50;5027837;28;20032;-60
2022/03/12 10:50:34;;;;;;;12.57;7.53;;;;;;;5.79;25.22;96345.00;5027352;28;20022;-54
2022/03/12 10:53:05;;;;;;;10.13;6.70;;;;;;;5.98;25.54;96359.09;5027272;28;20026;-60
2022/03/12 10:55:33;;;;;;;;;;;;;;;5.78;25.98;96353.56;5028945;28;20087;-59
2022/03/12 10:58:04;;;;;;;8.80;6.22;;;;;;;5.67;25.55;96352.09;5027748;28;19929;-60
2022/03/12 11:00:37;;;;;;;8.93;5.70;;;;;;;5.69;25.27;96327.31;5028295;28;20121;-64
2022/03/12 11:03:06;;;;;;;7.30;5.00;;;;;;;6.17;24.11;96340.75;5027149;28;20033;-62
2022/03/12 11:05:34;;;;;;;10.07;5.65;;;;;;;6.14;25.01;96336.53;5027700;28;20033;-62
2022/03/12 11:08:21;;;;;;;10.90;6.82;;;;;;;5.99;25.58;96330.06;5027335;28;20033;-62
2022/03/12 11:10:51;;;;;;;12.13;6.78;;;;;;;6.07;26.15;96333.28;5027680;28;20037;-60
2022/03/12 11:13:27;;;;;;;11.50;7.70;;;;;;;6.26;25.75;96330.25;5027791;28;20065;-63
2022/03/12 11:16:17;;;;;;;15.75;7.25;;;;;;;6.32;25.51;96331.84;5027101;28;20021;-59
2022/03/12 11:19:12;;;;;;;11.30;6.82;;;;;;;6.03;25.50;96325.69;5027742;28;20562;-61
2022/03/12 11:21:43;;;;;;;19.73;6.82;;;;;;;6.08;26.37;96318.75;5024443;28;20037;-61
2022/03/12 11:24:23;;;;;;;10.45;5.80;;;;;;;6.13;25.32;96322.03;5024549;28;20048;-65
2022/03/12 11:26:50;;;;;;;9.10;6.20;;;;;;;6.59;25.89;96320.88;5024311;28;20183;-59
2022/03/12 11:29:17;;;;;;;8.38;5.85;;;;;;;6.75;24.69;96312.78;5024841;28;20040;-61
2022/03/12 11:31:51;;;;;;;9.15;5.40;;;;;;;7.71;23.85;96305.72;5024797;28;20035;-59